»·PEaware :: SKY96 KHII-KPSP

SKY96 :: KHII-KPSP

FLIGHT INFORMATION

Flight Status: Arrived
Operator:
Sky High Charters
More flights by this operator :: More flights under this callsign
Pilot: Russell S. (24346)
Aircraft: BEECH AIRCRAFT DEBONAIR BONANZA
(BE33)
More flights by this aircraft type
Origin: KHII Lake Havasu City
United States
Destination: KPSP Palm Springs Intl
United States
More flights between these airports :: More routes between these airports
Route: EED COUD1
File this flight plan on PilotEdge
Remarks: ODP at KHII. SKY HIGH 8. LEG 2
Altitude:
(Current/Filed)
8,000ft
Speed:
(Current/Filed)
160kts
Departed: 17-Sep-19 01:09 PM
Arrived: 17-Sep-19 02:16 PM
Distance/Time
Traveled:
116nm/1:07
Distance/Time
To Go:
Arrived

Flight Plot

Page will automatically refresh every two minutes.


Map Options




Map Legend


Flown Route
Filed Route
Departure Airport
Arrival Airport
Navaid (VOR, NDB)
Fix

Horizontal Profiles

Position Reports

Time Latitude Longitude Heading Altitude Ground
Speed
17-Sep-19 12:58 34.571127 -114.358291 359 755ft 0kts
17-Sep-19 12:59 34.570388 -114.359735 329 742ft 24kts
17-Sep-19 13:00 34.571710 -114.360364 350 746ft 18kts
17-Sep-19 13:01 34.578019 -114.364476 331 747ft 29kts
17-Sep-19 13:02 34.579276 -114.365535 352 747ft 0kts
17-Sep-19 13:03 34.579276 -114.365535 352 747ft 0kts
17-Sep-19 13:04 34.579276 -114.365535 352 747ft 0kts
17-Sep-19 13:05 34.579276 -114.365535 352 747ft 0kts
17-Sep-19 13:06 34.579276 -114.365535 352 747ft 0kts
17-Sep-19 13:07 34.580414 -114.365149 77 752ft 9kts
17-Sep-19 13:08 34.572590 -114.359520 152 914ft 85kts
17-Sep-19 13:09 34.549830 -114.356918 243 1828ft 111kts
17-Sep-19 13:10 34.566739 -114.390713 309 2758ft 128kts
17-Sep-19 13:11 34.591421 -114.420672 314 3751ft 123kts
17-Sep-19 13:12 34.624604 -114.431062 337 4742ft 119kts
17-Sep-19 13:13 34.654022 -114.443741 332 5667ft 110kts
17-Sep-19 13:14 34.683887 -114.455928 342 6475ft 117kts
17-Sep-19 13:15 34.716187 -114.463142 341 7272ft 118kts
17-Sep-19 13:16 34.747956 -114.470197 340 8010ft 115kts
17-Sep-19 13:17 34.751508 -114.497911 227 8040ft 128kts
17-Sep-19 13:18 34.727107 -114.533276 230 8030ft 141kts
17-Sep-19 13:19 34.702099 -114.570823 230 8027ft 144kts
17-Sep-19 13:20 34.676908 -114.608870 230 8025ft 144kts
17-Sep-19 13:21 34.651642 -114.647021 230 8025ft 144kts
17-Sep-19 13:22 34.626279 -114.685265 230 8029ft 145kts
17-Sep-19 13:23 34.600916 -114.723489 230 8031ft 145kts
17-Sep-19 13:24 34.575495 -114.761797 230 8031ft 145kts
17-Sep-19 13:25 34.550109 -114.799994 230 8031ft 145kts
17-Sep-19 13:26 34.524715 -114.838159 230 8030ft 145kts
17-Sep-19 13:27 34.499258 -114.876374 230 8030ft 145kts
17-Sep-19 13:29 34.473721 -114.914669 230 8030ft 145kts
17-Sep-19 13:30 34.448305 -114.952739 230 8030ft 145kts
17-Sep-19 13:31 34.422764 -114.990938 230 8029ft 145kts
17-Sep-19 13:32 34.397194 -115.029150 230 8029ft 146kts
17-Sep-19 13:33 34.371463 -115.067571 231 8029ft 147kts
17-Sep-19 13:34 34.345523 -115.106266 231 8029ft 148kts
17-Sep-19 13:35 34.319417 -115.145165 231 8029ft 149kts
17-Sep-19 13:36 34.292922 -115.184602 231 8029ft 150kts
17-Sep-19 13:37 34.266379 -115.224042 231 8040ft 151kts
17-Sep-19 13:38 34.239785 -115.263512 232 8064ft 151kts
17-Sep-19 13:39 34.213224 -115.302866 232 8086ft 151kts
17-Sep-19 13:40 34.186505 -115.342473 233 8109ft 152kts
17-Sep-19 13:41 34.159618 -115.382286 233 8133ft 152kts
17-Sep-19 13:42 34.132710 -115.422090 233 8159ft 153kts
17-Sep-19 13:43 34.105643 -115.462095 233 8175ft 154kts
17-Sep-19 13:44 34.078442 -115.502225 233 8175ft 154kts
17-Sep-19 13:45 34.051011 -115.542642 233 8143ft 156kts
17-Sep-19 13:46 34.023468 -115.583180 233 8109ft 156kts
17-Sep-19 13:47 33.995722 -115.623970 233 8074ft 157kts
17-Sep-19 13:48 33.967863 -115.664874 233 8041ft 157kts
17-Sep-19 13:49 33.939988 -115.705808 233 8006ft 158kts
17-Sep-19 13:49 33.918041 -115.741149 258 7970ft 155kts
17-Sep-19 13:51 33.910765 -115.800743 241 7965ft 156kts
17-Sep-19 13:52 33.880569 -115.839553 229 7975ft 158kts
17-Sep-19 13:52 33.855323 -115.871668 229 7975ft 158kts
17-Sep-19 13:54 33.820106 -115.916580 229 7970ft 158kts
17-Sep-19 13:54 33.793339 -115.950535 230 7401ft 173kts
17-Sep-19 13:55 33.761192 -115.991527 229 6949ft 157kts
17-Sep-19 13:56 33.732420 -116.027931 229 6746ft 154kts
17-Sep-19 13:57 33.701487 -116.066803 227 6120ft 166kts
17-Sep-19 13:58 33.669953 -116.107261 228 5416ft 166kts
17-Sep-19 13:59 33.638472 -116.147199 228 4950ft 155kts
17-Sep-19 14:00 33.603879 -116.148566 120 4418ft 166kts
17-Sep-19 14:01 33.580420 -116.100638 119 3947ft 159kts
17-Sep-19 14:02 33.580911 -116.061839 2 3957ft 131kts
17-Sep-19 14:03 33.601414 -116.093352 296 3955ft 127kts
17-Sep-19 14:04 33.616544 -116.131434 296 3956ft 126kts
17-Sep-19 14:05 33.632770 -116.168614 305 3891ft 131kts
17-Sep-19 14:06 33.655857 -116.208078 305 3317ft 152kts
17-Sep-19 14:07 33.680392 -116.249806 306 2986ft 145kts
17-Sep-19 14:08 33.702488 -116.287940 305 2997ft 135kts
17-Sep-19 14:09 33.723874 -116.324489 305 3007ft 132kts
17-Sep-19 14:10 33.745094 -116.360791 306 3021ft 132kts
17-Sep-19 14:11 33.765700 -116.396254 304 2955ft 127kts
17-Sep-19 14:12 33.784275 -116.428386 306 2735ft 98kts
17-Sep-19 14:13 33.794072 -116.465621 284 1771ft 119kts
17-Sep-19 14:14 33.812093 -116.492496 328 697ft 94kts
17-Sep-19 14:15 33.827697 -116.505805 321 419ft 34kts
17-Sep-19 14:16 33.827415 -116.507673 148 420ft 17kts

Navigation Log

Ident Type
Flight plan parsing failed, navigation log unavailable